T7GSA KSAN-EKVG
Flight info
| Callsign | T7GSA |
|---|---|
| Flight time | N/A |
| Altitude | 32000 |
| Route | PADRZ2 EHF J5 FMG/N0469F330 J7 REO/N0471F320 J537 MLP/N0466F330 J540 YQL/N0462F350 Q896 MEETO Q959 YVC J540 YZS DCT 66N071W/M081F370 68N058W 68N043W/M080F390 67N029W 65N017W |
| Aircraft | B738/M-SDE2E3FGHIRWXY/LB1 |
Departure
| Time | 2026-05-07 02:49 |
|---|---|
| Airport | San Diego International Airport (KSAN) |
Arrival
| Time | N/A |
|---|---|
| Airport | Vágar Airport (EKVG) |
| Time | Latitude | Longitude | Altitude | Speed | Heading |
|---|---|---|---|---|---|
| 2026-05-07 02:15 | 32.73351 | -117.20798 | 23 ft | 0 kts | 271° |
| 2026-05-07 02:33 | 32.73351 | -117.20780 | 25 ft | 4 kts | 268° |
| 2026-05-07 02:33 | 32.73351 | -117.20754 | 23 ft | 2 kts | 269° |
| 2026-05-07 02:33 | 32.73351 | -117.20724 | 25 ft | 4 kts | 274° |
| 2026-05-07 02:34 | 32.73348 | -117.20694 | 25 ft | 4 kts | 278° |
| 2026-05-07 02:34 | 32.73344 | -117.20663 | 23 ft | 4 kts | 279° |
| 2026-05-07 02:34 | 32.73340 | -117.20633 | 22 ft | 2 kts | 272° |
| 2026-05-07 02:34 | 32.73340 | -117.20630 | 22 ft | 0 kts | 272° |
| 2026-05-07 02:37 | 32.73340 | -117.20634 | 23 ft | 2 kts | 272° |
| 2026-05-07 02:37 | 32.73348 | -117.20666 | 25 ft | 5 kts | 303° |
| 2026-05-07 02:37 | 32.73373 | -117.20687 | 23 ft | 5 kts | 343° |
| 2026-05-07 02:38 | 32.73405 | -117.20690 | 24 ft | 4 kts | 359° |
| 2026-05-07 02:38 | 32.73435 | -117.20690 | 24 ft | 4 kts | 0° |
| 2026-05-07 02:38 | 32.73466 | -117.20690 | 22 ft | 4 kts | 1° |
| 2026-05-07 02:38 | 32.73502 | -117.20689 | 22 ft | 7 kts | 3° |
| 2026-05-07 02:39 | 32.73554 | -117.20674 | 22 ft | 8 kts | 28° |
| 2026-05-07 02:39 | 32.73594 | -117.20627 | 22 ft | 9 kts | 55° |
| 2026-05-07 02:39 | 32.73606 | -117.20549 | 24 ft | 12 kts | 91° |
| 2026-05-07 02:39 | 32.73604 | -117.20444 | 21 ft | 13 kts | 91° |
| 2026-05-07 02:40 | 32.73585 | -117.20340 | 22 ft | 13 kts | 105° |
| 2026-05-07 02:40 | 32.73560 | -117.20238 | 24 ft | 13 kts | 107° |
| 2026-05-07 02:40 | 32.73536 | -117.20138 | 23 ft | 12 kts | 107° |
| 2026-05-07 02:40 | 32.73513 | -117.20040 | 23 ft | 12 kts | 104° |
| 2026-05-07 02:41 | 32.73490 | -117.19949 | 22 ft | 12 kts | 106° |
| 2026-05-07 02:41 | 32.73468 | -117.19856 | 22 ft | 11 kts | 106° |
| 2026-05-07 02:41 | 32.73444 | -117.19757 | 24 ft | 15 kts | 106° |
| 2026-05-07 02:41 | 32.73415 | -117.19637 | 23 ft | 15 kts | 106° |
| 2026-05-07 02:42 | 32.73388 | -117.19526 | 24 ft | 15 kts | 106° |
| 2026-05-07 02:42 | 32.73358 | -117.19401 | 24 ft | 18 kts | 106° |
| 2026-05-07 02:42 | 32.73318 | -117.19237 | 21 ft | 23 kts | 106° |
| 2026-05-07 02:42 | 32.73273 | -117.19053 | 24 ft | 23 kts | 106° |
| 2026-05-07 02:43 | 32.73230 | -117.18874 | 24 ft | 22 kts | 106° |
| 2026-05-07 02:43 | 32.73187 | -117.18698 | 24 ft | 23 kts | 106° |
| 2026-05-07 02:43 | 32.73141 | -117.18508 | 21 ft | 25 kts | 106° |
| 2026-05-07 02:43 | 32.73091 | -117.18300 | 21 ft | 26 kts | 105° |
| 2026-05-07 02:44 | 32.73042 | -117.18097 | 23 ft | 25 kts | 106° |
| 2026-05-07 02:44 | 32.72996 | -117.17909 | 22 ft | 23 kts | 106° |
| 2026-05-07 02:44 | 32.72954 | -117.17752 | 21 ft | 13 kts | 108° |
| 2026-05-07 02:44 | 32.72952 | -117.17692 | 21 ft | 7 kts | 74° |
| 2026-05-07 02:45 | 32.72954 | -117.17682 | 21 ft | 0 kts | 74° |
| 2026-05-07 02:47 | 32.72956 | -117.17674 | 21 ft | 2 kts | 72° |
| 2026-05-07 02:47 | 32.72963 | -117.17649 | 21 ft | 3 kts | 71° |
| 2026-05-07 02:47 | 32.72975 | -117.17626 | 22 ft | 4 kts | 47° |
| 2026-05-07 02:48 | 32.73022 | -117.17623 | 23 ft | 10 kts | 320° |
| 2026-05-07 02:48 | 32.73051 | -117.17706 | 23 ft | 11 kts | 289° |
| 2026-05-07 02:48 | 32.73071 | -117.17792 | 21 ft | 11 kts | 285° |
| 2026-05-07 02:48 | 32.73140 | -117.18075 | 19 ft | 71 kts | 286° |
| 2026-05-07 02:49 | 32.73340 | -117.18898 | 21 ft | 134 kts | 286° |
| 2026-05-07 02:49 | 32.73644 | -117.20143 | 216 ft | 171 kts | 287° |
| 2026-05-07 02:49 | 32.73981 | -117.21494 | 1043 ft | 168 kts | 295° |
| 2026-05-07 02:49 | 32.74615 | -117.22636 | 1831 ft | 168 kts | 307° |
| 2026-05-07 02:50 | 32.75353 | -117.23868 | 2115 ft | 195 kts | 306° |
| 2026-05-07 02:50 | 32.76173 | -117.25274 | 2293 ft | 220 kts | 305° |
| 2026-05-07 02:50 | 32.77085 | -117.26856 | 2540 ft | 244 kts | 305° |
| 2026-05-07 02:50 | 32.78080 | -117.28587 | 2997 ft | 260 kts | 304° |
| 2026-05-07 02:51 | 32.79105 | -117.30375 | 3751 ft | 263 kts | 304° |
| 2026-05-07 02:51 | 32.80144 | -117.32166 | 4530 ft | 265 kts | 307° |
| 2026-05-07 02:51 | 32.81259 | -117.33926 | 5290 ft | 266 kts | 309° |
| 2026-05-07 02:51 | 32.82398 | -117.35673 | 6017 ft | 270 kts | 309° |
| 2026-05-07 02:52 | 32.83565 | -117.37458 | 6659 ft | 275 kts | 310° |
| 2026-05-07 02:52 | 32.84743 | -117.39267 | 7326 ft | 279 kts | 310° |
| 2026-05-07 02:52 | 32.85931 | -117.41100 | 8011 ft | 281 kts | 310° |
| 2026-05-07 02:52 | 32.86725 | -117.42330 | 8480 ft | 283 kts | 311° |
| 2026-05-07 02:53 | 32.87928 | -117.44194 | 9130 ft | 287 kts | 311° |
| 2026-05-07 02:53 | 32.89562 | -117.46730 | 10058 ft | 290 kts | 312° |
| 2026-05-07 02:53 | 32.90817 | -117.48677 | 10437 ft | 305 kts | 311° |
| 2026-05-07 02:53 | 32.92138 | -117.50724 | 10588 ft | 326 kts | 311° |
| 2026-05-07 02:54 | 32.93558 | -117.52930 | 10746 ft | 346 kts | 311° |
| 2026-05-07 02:54 | 32.95062 | -117.55272 | 10891 ft | 365 kts | 311° |
| 2026-05-07 02:54 | 32.96120 | -117.56919 | 10980 ft | 377 kts | 311° |
| 2026-05-07 02:54 | 32.97747 | -117.59458 | 11118 ft | 393 kts | 310° |
| 2026-05-07 02:55 | 32.99427 | -117.62086 | 11460 ft | 401 kts | 310° |
| 2026-05-07 02:55 | 33.01110 | -117.64723 | 11949 ft | 404 kts | 310° |
| 2026-05-07 02:55 | 33.02801 | -117.67371 | 12461 ft | 407 kts | 310° |
| 2026-05-07 02:55 | 33.04524 | -117.70067 | 12939 ft | 410 kts | 310° |
| 2026-05-07 02:56 | 33.06268 | -117.72776 | 13402 ft | 413 kts | 312° |
| 2026-05-07 02:56 | 33.08265 | -117.75230 | 13844 ft | 413 kts | 322° |
| 2026-05-07 02:56 | 33.10488 | -117.77420 | 14285 ft | 414 kts | 325° |
| 2026-05-07 02:56 | 33.12753 | -117.79559 | 14750 ft | 415 kts | 325° |
| 2026-05-07 02:57 | 33.14995 | -117.81730 | 15199 ft | 417 kts | 324° |
| 2026-05-07 02:57 | 33.17228 | -117.83970 | 15641 ft | 419 kts | 323° |
| 2026-05-07 02:57 | 33.19455 | -117.86241 | 16073 ft | 421 kts | 322° |
| 2026-05-07 02:57 | 33.21704 | -117.88506 | 16451 ft | 424 kts | 323° |
| 2026-05-07 02:58 | 33.23998 | -117.90747 | 16857 ft | 426 kts | 324° |
| 2026-05-07 02:58 | 33.26305 | -117.92978 | 17295 ft | 428 kts | 324° |
| 2026-05-07 02:58 | 33.28593 | -117.95191 | 17709 ft | 429 kts | 324° |
| 2026-05-07 02:58 | 33.30925 | -117.97454 | 18093 ft | 431 kts | 324° |
| 2026-05-07 02:59 | 33.33256 | -117.99724 | 18472 ft | 433 kts | 324° |
| 2026-05-07 02:59 | 33.35599 | -118.02012 | 18804 ft | 435 kts | 324° |
| 2026-05-07 02:59 | 33.37922 | -118.04286 | 19130 ft | 437 kts | 324° |
| 2026-05-07 02:59 | 33.40289 | -118.06606 | 19400 ft | 440 kts | 324° |
| 2026-05-07 03:00 | 33.42660 | -118.08931 | 19743 ft | 441 kts | 323° |
| 2026-05-07 03:00 | 33.45035 | -118.11263 | 20113 ft | 442 kts | 324° |
| 2026-05-07 03:00 | 33.47414 | -118.13600 | 20442 ft | 444 kts | 324° |
| 2026-05-07 03:00 | 33.49812 | -118.15957 | 20741 ft | 446 kts | 324° |
| 2026-05-07 03:01 | 33.52213 | -118.18319 | 21041 ft | 448 kts | 324° |
| 2026-05-07 03:01 | 33.54596 | -118.20664 | 21349 ft | 449 kts | 324° |
| 2026-05-07 03:01 | 33.57019 | -118.23040 | 21645 ft | 450 kts | 325° |
| 2026-05-07 03:01 | 33.59658 | -118.25041 | 21858 ft | 448 kts | 337° |
| 2026-05-07 03:02 | 33.62524 | -118.26545 | 22141 ft | 445 kts | 340° |
| 2026-05-07 03:02 | 33.65373 | -118.27989 | 22360 ft | 446 kts | 340° |
| 2026-05-07 03:02 | 33.68224 | -118.29482 | 22499 ft | 451 kts | 339° |
| 2026-05-07 03:02 | 33.71100 | -118.31043 | 22727 ft | 453 kts | 338° |
| 2026-05-07 03:03 | 33.73971 | -118.32630 | 23023 ft | 454 kts | 338° |
| 2026-05-07 03:03 | 33.76842 | -118.34218 | 23329 ft | 455 kts | 339° |
| 2026-05-07 03:03 | 33.79756 | -118.35735 | 23546 ft | 457 kts | 340° |
| 2026-05-07 03:03 | 33.82694 | -118.37196 | 23729 ft | 459 kts | 341° |
| 2026-05-07 03:04 | 33.85622 | -118.38639 | 23945 ft | 460 kts | 341° |
| 2026-05-07 03:04 | 33.88591 | -118.40113 | 24180 ft | 460 kts | 340° |
| 2026-05-07 03:04 | 33.91553 | -118.41598 | 24395 ft | 462 kts | 340° |
| 2026-05-07 03:04 | 33.94483 | -118.43079 | 24578 ft | 463 kts | 340° |
| 2026-05-07 03:05 | 33.97459 | -118.44586 | 24766 ft | 464 kts | 340° |
| 2026-05-07 03:05 | 34.00461 | -118.46026 | 24924 ft | 464 kts | 345° |
| 2026-05-07 03:05 | 34.03614 | -118.46783 | 25082 ft | 462 kts | 355° |
| 2026-05-07 03:05 | 34.06807 | -118.47223 | 25306 ft | 462 kts | 356° |
| 2026-05-07 03:06 | 34.10000 | -118.47631 | 25535 ft | 462 kts | 356° |
| 2026-05-07 03:06 | 34.13195 | -118.48050 | 25790 ft | 461 kts | 356° |
| 2026-05-07 03:06 | 34.16376 | -118.48491 | 26122 ft | 459 kts | 355° |
| 2026-05-07 03:06 | 34.19547 | -118.48952 | 26447 ft | 457 kts | 355° |
| 2026-05-07 03:07 | 34.22705 | -118.49427 | 26699 ft | 457 kts | 355° |
| 2026-05-07 03:07 | 34.25866 | -118.49911 | 26921 ft | 458 kts | 355° |
| 2026-05-07 03:07 | 34.28978 | -118.50392 | 27209 ft | 457 kts | 355° |
| 2026-05-07 03:07 | 34.32128 | -118.50881 | 27561 ft | 455 kts | 355° |
| 2026-05-07 03:08 | 34.35258 | -118.51366 | 27889 ft | 454 kts | 355° |
| 2026-05-07 03:08 | 34.38404 | -118.51854 | 28200 ft | 453 kts | 355° |
| 2026-05-07 03:08 | 34.41384 | -118.52315 | 28486 ft | 452 kts | 355° |
| 2026-05-07 03:08 | 34.44505 | -118.52798 | 28796 ft | 451 kts | 355° |
| 2026-05-07 03:09 | 34.47608 | -118.53278 | 29116 ft | 450 kts | 354° |
| 2026-05-07 03:09 | 34.50720 | -118.53761 | 29429 ft | 450 kts | 354° |
| 2026-05-07 03:09 | 34.53825 | -118.54243 | 29773 ft | 449 kts | 354° |
| 2026-05-07 03:09 | 34.56917 | -118.54723 | 30133 ft | 447 kts | 355° |
| 2026-05-07 03:10 | 34.60003 | -118.55203 | 30434 ft | 446 kts | 355° |
| 2026-05-07 03:10 | 34.63081 | -118.55681 | 30688 ft | 446 kts | 355° |
| 2026-05-07 03:10 | 34.66154 | -118.56158 | 30934 ft | 445 kts | 354° |
| 2026-05-07 03:10 | 34.69222 | -118.56635 | 31268 ft | 443 kts | 354° |
| 2026-05-07 03:11 | 34.72270 | -118.57110 | 31528 ft | 442 kts | 354° |
| 2026-05-07 03:11 | 34.75326 | -118.57586 | 31760 ft | 442 kts | 354° |
| 2026-05-07 03:11 | 34.78375 | -118.58061 | 32004 ft | 441 kts | 355° |
| 2026-05-07 03:11 | 34.81435 | -118.58538 | 32076 ft | 445 kts | 354° |
| 2026-05-07 03:12 | 34.87580 | -118.59497 | 32127 ft | 452 kts | 354° |
| 2026-05-07 03:12 | 34.93855 | -118.60478 | 32144 ft | 456 kts | 354° |
| 2026-05-07 03:13 | 35.00155 | -118.61720 | 32145 ft | 463 kts | 343° |
| 2026-05-07 03:13 | 35.03080 | -118.63401 | 32172 ft | 470 kts | 329° |
| 2026-05-07 03:13 | 35.05670 | -118.65857 | 32188 ft | 473 kts | 323° |
| 2026-05-07 03:14 | 35.10710 | -118.71098 | 32151 ft | 476 kts | 322° |
| 2026-05-07 03:15 | 35.18287 | -118.78888 | 32107 ft | 477 kts | 323° |
| 2026-05-07 03:15 | 35.23398 | -118.84080 | 32092 ft | 477 kts | 323° |
| 2026-05-07 03:16 | 35.28507 | -118.89273 | 32097 ft | 477 kts | 323° |
| 2026-05-07 03:16 | 35.33611 | -118.94473 | 32091 ft | 477 kts | 323° |
| 2026-05-07 03:17 | 35.38714 | -118.99683 | 32086 ft | 477 kts | 323° |
| 2026-05-07 03:17 | 35.43814 | -119.04899 | 32096 ft | 477 kts | 323° |
| 2026-05-07 03:18 | 35.49257 | -119.09434 | 32094 ft | 470 kts | 341° |
| 2026-05-07 03:18 | 35.52406 | -119.10406 | 32086 ft | 466 kts | 354° |
| 2026-05-07 03:18 | 35.55589 | -119.10832 | 32098 ft | 466 kts | 355° |
| 2026-05-07 03:19 | 35.62059 | -119.11575 | 32087 ft | 466 kts | 355° |
| 2026-05-07 03:19 | 35.68469 | -119.12343 | 32071 ft | 455 kts | 355° |
| 2026-05-07 03:20 | 35.74654 | -119.13138 | 32083 ft | 442 kts | 355° |
| 2026-05-07 03:20 | 35.80765 | -119.13944 | 32096 ft | 440 kts | 355° |
| 2026-05-07 03:21 | 35.86858 | -119.14752 | 32092 ft | 440 kts | 355° |
| 2026-05-07 03:21 | 35.92937 | -119.15558 | 32104 ft | 440 kts | 355° |
| 2026-05-07 03:22 | 35.99001 | -119.16362 | 32102 ft | 441 kts | 355° |
| 2026-05-07 03:22 | 36.05123 | -119.17175 | 32099 ft | 443 kts | 354° |
| 2026-05-07 03:23 | 36.11273 | -119.17993 | 32106 ft | 445 kts | 354° |
| 2026-05-07 03:23 | 36.17443 | -119.18815 | 32101 ft | 447 kts | 354° |
| 2026-05-07 03:24 | 36.23598 | -119.19637 | 32099 ft | 448 kts | 354° |
| 2026-05-07 03:24 | 36.29793 | -119.20465 | 32099 ft | 449 kts | 354° |
| 2026-05-07 03:25 | 36.36004 | -119.21297 | 32096 ft | 449 kts | 354° |
| 2026-05-07 03:25 | 36.42218 | -119.22130 | 32095 ft | 448 kts | 354° |
| 2026-05-07 03:26 | 36.48424 | -119.22964 | 32097 ft | 448 kts | 354° |
| 2026-05-07 03:26 | 36.54620 | -119.23798 | 32094 ft | 447 kts | 354° |
| 2026-05-07 03:27 | 36.60807 | -119.24631 | 32086 ft | 447 kts | 354° |
| 2026-05-07 03:27 | 36.66986 | -119.25465 | 32080 ft | 446 kts | 354° |
| 2026-05-07 03:28 | 36.73155 | -119.26300 | 32079 ft | 445 kts | 354° |
| 2026-05-07 03:28 | 36.79268 | -119.27127 | 32080 ft | 445 kts | 354° |
| 2026-05-07 03:29 | 36.85422 | -119.27961 | 32088 ft | 445 kts | 354° |
| 2026-05-07 03:29 | 36.91573 | -119.28795 | 32080 ft | 445 kts | 354° |
| 2026-05-07 03:30 | 36.97726 | -119.29631 | 32089 ft | 444 kts | 354° |
| 2026-05-07 03:30 | 37.03880 | -119.30469 | 32085 ft | 445 kts | 354° |
| 2026-05-07 03:31 | 37.10046 | -119.31310 | 32095 ft | 445 kts | 354° |
| 2026-05-07 03:31 | 37.16208 | -119.32152 | 32097 ft | 445 kts | 354° |
| 2026-05-07 03:32 | 37.22375 | -119.32996 | 32089 ft | 446 kts | 354° |
| 2026-05-07 03:32 | 37.28514 | -119.33837 | 32090 ft | 447 kts | 354° |
| 2026-05-07 03:33 | 37.34704 | -119.34687 | 32113 ft | 446 kts | 354° |
| 2026-05-07 03:33 | 37.40873 | -119.35534 | 32118 ft | 446 kts | 354° |
| 2026-05-07 03:34 | 37.47043 | -119.36384 | 32115 ft | 446 kts | 354° |
| 2026-05-07 03:34 | 37.53211 | -119.37235 | 32121 ft | 445 kts | 354° |
| 2026-05-07 03:35 | 37.59367 | -119.38085 | 32119 ft | 445 kts | 354° |
| 2026-05-07 03:35 | 37.65518 | -119.38936 | 32136 ft | 444 kts | 354° |
| 2026-05-07 03:36 | 37.71629 | -119.39784 | 32145 ft | 445 kts | 353° |
| 2026-05-07 03:36 | 37.77788 | -119.40640 | 32156 ft | 445 kts | 353° |
| 2026-05-07 03:37 | 37.83946 | -119.41496 | 32149 ft | 446 kts | 353° |
| 2026-05-07 03:37 | 37.90120 | -119.42355 | 32159 ft | 446 kts | 353° |
| 2026-05-07 03:38 | 37.96281 | -119.43225 | 32156 ft | 446 kts | 353° |
| 2026-05-07 03:38 | 38.02445 | -119.44079 | 32170 ft | 444 kts | 353° |
| 2026-05-07 03:39 | 38.08592 | -119.44950 | 32167 ft | 444 kts | 353° |
| 2026-05-07 03:39 | 38.14700 | -119.45819 | 32172 ft | 445 kts | 353° |
| 2026-05-07 03:40 | 38.20900 | -119.46697 | 32162 ft | 445 kts | 353° |
| 2026-05-07 03:40 | 38.27049 | -119.47568 | 32156 ft | 445 kts | 353° |
| 2026-05-07 03:41 | 38.33151 | -119.48435 | 32168 ft | 445 kts | 353° |
| 2026-05-07 03:41 | 38.39316 | -119.49304 | 32160 ft | 445 kts | 353° |
| 2026-05-07 03:42 | 38.45474 | -119.50165 | 32137 ft | 446 kts | 353° |
| 2026-05-07 03:42 | 38.51635 | -119.51028 | 32156 ft | 445 kts | 353° |
| 2026-05-07 03:43 | 38.56756 | -119.51749 | 32145 ft | 445 kts | 353° |
| 2026-05-07 03:43 | 38.63904 | -119.52756 | 32130 ft | 443 kts | 353° |
| 2026-05-07 03:44 | 38.69006 | -119.53480 | 32124 ft | 443 kts | 353° |
| 2026-05-07 03:44 | 38.75144 | -119.54356 | 32118 ft | 442 kts | 353° |
| 2026-05-07 03:45 | 38.81249 | -119.55226 | 32151 ft | 440 kts | 352° |
| 2026-05-07 03:45 | 38.87353 | -119.56101 | 32149 ft | 442 kts | 353° |
| 2026-05-07 03:46 | 38.93483 | -119.56980 | 32158 ft | 443 kts | 353° |
| 2026-05-07 03:46 | 38.99585 | -119.57855 | 32167 ft | 444 kts | 353° |
| 2026-05-07 03:47 | 39.05730 | -119.58738 | 32174 ft | 445 kts | 353° |
| 2026-05-07 03:47 | 39.11890 | -119.59625 | 32178 ft | 445 kts | 352° |
| 2026-05-07 03:48 | 39.18049 | -119.60514 | 32184 ft | 445 kts | 352° |
| 2026-05-07 03:48 | 39.24224 | -119.61406 | 32181 ft | 445 kts | 352° |
| 2026-05-07 03:49 | 39.30359 | -119.62292 | 32166 ft | 443 kts | 352° |
| 2026-05-07 03:49 | 39.36463 | -119.63179 | 32140 ft | 443 kts | 352° |
| 2026-05-07 03:50 | 39.42592 | -119.64070 | 32132 ft | 443 kts | 352° |
| 2026-05-07 03:50 | 39.48721 | -119.64942 | 32149 ft | 443 kts | 355° |
| 2026-05-07 03:51 | 39.54872 | -119.64253 | 32146 ft | 446 kts | 11° |
| 2026-05-07 03:51 | 39.60730 | -119.61516 | 32128 ft | 449 kts | 21° |
| 2026-05-07 03:52 | 39.66458 | -119.58245 | 32101 ft | 450 kts | 21° |
| 2026-05-07 03:52 | 39.72190 | -119.54984 | 32099 ft | 450 kts | 21° |
| 2026-05-07 03:53 | 39.77941 | -119.51749 | 32082 ft | 450 kts | 21° |
| 2026-05-07 03:53 | 39.83673 | -119.48536 | 32050 ft | 449 kts | 21° |
| 2026-05-07 03:54 | 39.89378 | -119.45336 | 32037 ft | 448 kts | 21° |
| 2026-05-07 03:54 | 39.95124 | -119.42104 | 32037 ft | 447 kts | 21° |
| 2026-05-07 03:55 | 40.00791 | -119.38912 | 32044 ft | 445 kts | 21° |
| 2026-05-07 03:55 | 40.06476 | -119.35701 | 32048 ft | 445 kts | 21° |
| 2026-05-07 03:56 | 40.12156 | -119.32489 | 32046 ft | 444 kts | 21° |
| 2026-05-07 03:56 | 40.17828 | -119.29275 | 32052 ft | 444 kts | 21° |
| 2026-05-07 03:57 | 40.23502 | -119.26054 | 32054 ft | 444 kts | 21° |
| 2026-05-07 03:57 | 40.29162 | -119.22836 | 32059 ft | 444 kts | 22° |
| 2026-05-07 03:58 | 40.34840 | -119.19600 | 32049 ft | 444 kts | 22° |
| 2026-05-07 03:58 | 40.40451 | -119.16397 | 32051 ft | 443 kts | 22° |
| 2026-05-07 03:59 | 40.46100 | -119.13167 | 32053 ft | 442 kts | 22° |
| 2026-05-07 03:59 | 40.51739 | -119.09936 | 32051 ft | 442 kts | 22° |
| 2026-05-07 04:00 | 40.57369 | -119.06705 | 32047 ft | 441 kts | 22° |
| 2026-05-07 04:00 | 40.62999 | -119.03469 | 32054 ft | 441 kts | 22° |
| 2026-05-07 04:01 | 40.68628 | -119.00228 | 32045 ft | 441 kts | 22° |
| 2026-05-07 04:01 | 40.74257 | -118.96980 | 32041 ft | 441 kts | 22° |
| 2026-05-07 04:02 | 40.79842 | -118.93752 | 32045 ft | 441 kts | 22° |
| 2026-05-07 04:02 | 40.85464 | -118.90494 | 32047 ft | 441 kts | 21° |
| 2026-05-07 04:03 | 40.91092 | -118.87228 | 32037 ft | 441 kts | 21° |
| 2026-05-07 04:03 | 40.96714 | -118.83960 | 32033 ft | 441 kts | 21° |
| 2026-05-07 04:04 | 41.02323 | -118.80692 | 32036 ft | 441 kts | 21° |
| 2026-05-07 04:04 | 41.07940 | -118.77414 | 32035 ft | 441 kts | 21° |
| 2026-05-07 04:05 | 41.13520 | -118.74152 | 32036 ft | 441 kts | 21° |
| 2026-05-07 04:05 | 41.19129 | -118.70866 | 32035 ft | 441 kts | 21° |
| 2026-05-07 04:06 | 41.24731 | -118.67577 | 32036 ft | 440 kts | 21° |
| 2026-05-07 04:06 | 41.30373 | -118.64262 | 32246 ft | 444 kts | 21° |
| 2026-05-07 04:06 | 41.33201 | -118.62596 | 32579 ft | 441 kts | 21° |
| 2026-05-07 04:07 | 41.35992 | -118.60950 | 32922 ft | 438 kts | 21° |
| 2026-05-07 04:07 | 41.38780 | -118.59305 | 33028 ft | 439 kts | 21° |
| 2026-05-07 04:07 | 41.41583 | -118.57650 | 33040 ft | 441 kts | 21° |
| 2026-05-07 04:08 | 41.47182 | -118.54340 | 33027 ft | 439 kts | 21° |
| 2026-05-07 04:08 | 41.52747 | -118.51042 | 33033 ft | 437 kts | 21° |
| 2026-05-07 04:09 | 41.58309 | -118.47740 | 33033 ft | 436 kts | 21° |
| 2026-05-07 04:09 | 41.63842 | -118.44450 | 33034 ft | 436 kts | 21° |
| 2026-05-07 04:10 | 41.69385 | -118.41148 | 33033 ft | 436 kts | 21° |
| 2026-05-07 04:10 | 41.74904 | -118.37853 | 33039 ft | 437 kts | 21° |
| 2026-05-07 04:11 | 41.80463 | -118.34530 | 33031 ft | 438 kts | 21° |
| 2026-05-07 04:11 | 41.86033 | -118.31193 | 33030 ft | 439 kts | 21° |
| 2026-05-07 04:12 | 41.91618 | -118.27838 | 33032 ft | 439 kts | 21° |
| 2026-05-07 04:12 | 41.97202 | -118.24478 | 33039 ft | 440 kts | 21° |
| 2026-05-07 04:13 | 42.02792 | -118.21110 | 33016 ft | 440 kts | 21° |
| 2026-05-07 04:13 | 42.08382 | -118.17727 | 33024 ft | 440 kts | 21° |
| 2026-05-07 04:14 | 42.13939 | -118.14370 | 33009 ft | 441 kts | 21° |
| 2026-05-07 04:14 | 42.19533 | -118.10981 | 33036 ft | 441 kts | 21° |
| 2026-05-07 04:15 | 42.25127 | -118.07583 | 33023 ft | 441 kts | 21° |
| 2026-05-07 04:15 | 42.30731 | -118.04172 | 33032 ft | 441 kts | 21° |
| 2026-05-07 04:16 | 42.36323 | -118.00763 | 33047 ft | 441 kts | 21° |
| 2026-05-07 04:16 | 42.41902 | -117.97352 | 33048 ft | 441 kts | 20° |
| 2026-05-07 04:17 | 42.47487 | -117.93933 | 33069 ft | 441 kts | 20° |
| 2026-05-07 04:17 | 42.53083 | -117.90501 | 33072 ft | 440 kts | 20° |
| 2026-05-07 04:18 | 42.58671 | -117.87073 | 33075 ft | 440 kts | 19° |
| 2026-05-07 04:18 | 42.64378 | -117.84391 | 33078 ft | 436 kts | 13° |
| 2026-05-07 04:19 | 42.70202 | -117.82042 | 33069 ft | 436 kts | 13° |
| 2026-05-07 04:19 | 42.76018 | -117.79678 | 33038 ft | 436 kts | 13° |
| 2026-05-07 04:20 | 42.81816 | -117.77269 | 33019 ft | 436 kts | 13° |
| 2026-05-07 04:20 | 42.87614 | -117.74829 | 33001 ft | 436 kts | 13° |
| 2026-05-07 04:21 | 42.96314 | -117.71149 | 32998 ft | 437 kts | 13° |
| 2026-05-07 04:21 | 43.02138 | -117.68679 | 32984 ft | 438 kts | 13° |
| 2026-05-07 04:22 | 43.07921 | -117.66223 | 32991 ft | 438 kts | 13° |
| 2026-05-07 04:22 | 43.13776 | -117.63731 | 32989 ft | 438 kts | 13° |
| 2026-05-07 04:23 | 43.19557 | -117.61267 | 32998 ft | 438 kts | 13° |
| 2026-05-07 04:23 | 43.25391 | -117.58785 | 32983 ft | 437 kts | 12° |
| 2026-05-07 04:24 | 43.31194 | -117.56301 | 33002 ft | 437 kts | 13° |
| 2026-05-07 04:24 | 43.36999 | -117.53803 | 33007 ft | 438 kts | 13° |
| 2026-05-07 04:25 | 43.42812 | -117.51302 | 33006 ft | 438 kts | 13° |
| 2026-05-07 04:25 | 43.48607 | -117.48807 | 33015 ft | 439 kts | 12° |
| 2026-05-07 04:26 | 43.54438 | -117.46293 | 33000 ft | 439 kts | 13° |
| 2026-05-07 04:26 | 43.60269 | -117.43770 | 32997 ft | 439 kts | 13° |
| 2026-05-07 04:27 | 43.66090 | -117.41248 | 33002 ft | 438 kts | 13° |
| 2026-05-07 04:27 | 43.71906 | -117.38723 | 33003 ft | 438 kts | 13° |
| 2026-05-07 04:28 | 43.77721 | -117.36193 | 33015 ft | 438 kts | 13° |
| 2026-05-07 04:28 | 43.83522 | -117.33664 | 33005 ft | 438 kts | 12° |
| 2026-05-07 04:29 | 43.89340 | -117.31123 | 32996 ft | 438 kts | 12° |
| 2026-05-07 04:29 | 43.95111 | -117.28597 | 32998 ft | 437 kts | 12° |
| 2026-05-07 04:30 | 44.00902 | -117.26057 | 33000 ft | 437 kts | 12° |
| 2026-05-07 04:30 | 44.06701 | -117.23510 | 33019 ft | 437 kts | 12° |
| 2026-05-07 04:31 | 44.11528 | -117.21385 | 33003 ft | 437 kts | 12° |
| 2026-05-07 04:31 | 44.17334 | -117.18823 | 33005 ft | 437 kts | 12° |
| 2026-05-07 04:32 | 44.23130 | -117.16259 | 33031 ft | 436 kts | 12° |
| 2026-05-07 04:32 | 44.28913 | -117.13698 | 33012 ft | 436 kts | 12° |
| 2026-05-07 04:33 | 44.34694 | -117.11131 | 33047 ft | 436 kts | 12° |
| 2026-05-07 04:33 | 44.40479 | -117.08558 | 33023 ft | 436 kts | 12° |
| 2026-05-07 04:34 | 44.46268 | -117.05978 | 33027 ft | 436 kts | 12° |
| 2026-05-07 04:34 | 44.52048 | -117.03396 | 33019 ft | 436 kts | 12° |
| 2026-05-07 04:35 | 44.57800 | -117.00821 | 33017 ft | 436 kts | 12° |
| 2026-05-07 04:35 | 44.63581 | -116.98228 | 33017 ft | 436 kts | 12° |
| 2026-05-07 04:36 | 44.69363 | -116.95629 | 33033 ft | 437 kts | 12° |
| 2026-05-07 04:36 | 44.75163 | -116.93019 | 33031 ft | 437 kts | 12° |
| 2026-05-07 04:37 | 44.80954 | -116.90401 | 33032 ft | 437 kts | 12° |
| 2026-05-07 04:37 | 44.86759 | -116.87777 | 33022 ft | 438 kts | 12° |
| 2026-05-07 04:38 | 44.92550 | -116.85165 | 33043 ft | 437 kts | 12° |
| 2026-05-07 04:38 | 44.98330 | -116.82533 | 33055 ft | 437 kts | 12° |
| 2026-05-07 04:39 | 45.04118 | -116.79889 | 33041 ft | 436 kts | 11° |
| 2026-05-07 04:39 | 45.09858 | -116.77266 | 33034 ft | 437 kts | 12° |
| 2026-05-07 04:40 | 45.15629 | -116.74689 | 33040 ft | 432 kts | 11° |
| 2026-05-07 04:40 | 45.21358 | -116.72178 | 33052 ft | 426 kts | 9° |
| 2026-05-07 04:41 | 45.27060 | -116.69898 | 33046 ft | 429 kts | 13° |
| 2026-05-07 04:41 | 45.32727 | -116.66998 | 33049 ft | 435 kts | 13° |
| 2026-05-07 04:42 | 45.38406 | -116.63730 | 33023 ft | 439 kts | 12° |
| 2026-05-07 04:42 | 45.44256 | -116.61307 | 33020 ft | 439 kts | 10° |
| 2026-05-07 04:43 | 45.50122 | -116.58750 | 33031 ft | 440 kts | 11° |
| 2026-05-07 04:43 | 45.55874 | -116.56095 | 32986 ft | 433 kts | 11° |
| 2026-05-07 04:44 | 45.61564 | -116.53435 | 32988 ft | 430 kts | 11° |
| 2026-05-07 04:44 | 45.67230 | -116.50716 | 32970 ft | 429 kts | 11° |
| 2026-05-07 04:45 | 45.72925 | -116.48061 | 32985 ft | 430 kts | 11° |
| 2026-05-07 04:45 | 45.78620 | -116.45441 | 32970 ft | 431 kts | 11° |
| 2026-05-07 04:46 | 45.84328 | -116.42790 | 32985 ft | 431 kts | 11° |
| 2026-05-07 04:46 | 45.90038 | -116.40091 | 32975 ft | 432 kts | 11° |
| 2026-05-07 04:47 | 45.95758 | -116.37406 | 32946 ft | 432 kts | 11° |
| 2026-05-07 04:47 | 46.01469 | -116.34762 | 32957 ft | 430 kts | 11° |
| 2026-05-07 04:48 | 46.07192 | -116.32053 | 33186 ft | 434 kts | 11° |
| 2026-05-07 04:48 | 46.10015 | -116.30697 | 33530 ft | 431 kts | 11° |
| 2026-05-07 04:48 | 46.12847 | -116.29337 | 33956 ft | 425 kts | 11° |
| 2026-05-07 04:49 | 46.15645 | -116.27995 | 34256 ft | 423 kts | 11° |
| 2026-05-07 04:49 | 46.18440 | -116.26662 | 34452 ft | 422 kts | 11° |
| 2026-05-07 04:49 | 46.21218 | -116.25339 | 34626 ft | 422 kts | 10° |
| 2026-05-07 04:49 | 46.24015 | -116.24008 | 34794 ft | 423 kts | 10° |
| 2026-05-07 04:50 | 46.26803 | -116.22679 | 34922 ft | 422 kts | 10° |
| 2026-05-07 04:50 | 46.29600 | -116.21347 | 34905 ft | 424 kts | 10° |
| 2026-05-07 04:50 | 46.35150 | -116.18693 | 34899 ft | 422 kts | 10° |
| 2026-05-07 04:51 | 46.40744 | -116.16009 | 34935 ft | 420 kts | 10° |
| 2026-05-07 04:51 | 46.46260 | -116.13362 | 34928 ft | 420 kts | 10° |
| 2026-05-07 04:52 | 46.51803 | -116.10693 | 34909 ft | 418 kts | 10° |
| 2026-05-07 04:52 | 46.57328 | -116.08027 | 34907 ft | 418 kts | 10° |
| 2026-05-07 04:53 | 46.62839 | -116.05365 | 34909 ft | 417 kts | 10° |
| 2026-05-07 04:53 | 46.68351 | -116.02709 | 34899 ft | 417 kts | 10° |
| 2026-05-07 04:54 | 46.73861 | -116.00026 | 34899 ft | 418 kts | 10° |
| 2026-05-07 04:54 | 46.79391 | -115.97537 | 34944 ft | 412 kts | 8° |
| 2026-05-07 04:55 | 46.84820 | -115.94696 | 34912 ft | 418 kts | 11° |
| 2026-05-07 04:55 | 46.90335 | -115.92057 | 34887 ft | 417 kts | 10° |
| 2026-05-07 04:56 | 46.95848 | -115.89328 | 34911 ft | 419 kts | 10° |
| 2026-05-07 04:56 | 47.01396 | -115.86573 | 34944 ft | 422 kts | 9° |
| 2026-05-07 04:57 | 47.06986 | -115.83819 | 34916 ft | 424 kts | 9° |
| 2026-05-07 04:57 | 47.12587 | -115.81055 | 34893 ft | 425 kts | 9° |
| 2026-05-07 04:58 | 47.18195 | -115.78283 | 34904 ft | 424 kts | 9° |
| 2026-05-07 04:58 | 47.23801 | -115.75507 | 34889 ft | 425 kts | 9° |
| 2026-05-07 04:59 | 47.29393 | -115.72726 | 34889 ft | 424 kts | 9° |
| 2026-05-07 04:59 | 47.34992 | -115.69946 | 34905 ft | 425 kts | 9° |
| 2026-05-07 05:00 | 47.40583 | -115.67155 | 34863 ft | 424 kts | 9° |
| 2026-05-07 05:00 | 47.46026 | -115.63734 | 34862 ft | 437 kts | 21° |
| 2026-05-07 05:01 | 47.48545 | -115.61128 | 34862 ft | 449 kts | 30° |
| 2026-05-07 05:01 | 47.50909 | -115.58092 | 34875 ft | 450 kts | 31° |
| 2026-05-07 05:01 | 47.55594 | -115.51938 | 34851 ft | 451 kts | 31° |
| 2026-05-07 05:02 | 47.60278 | -115.45787 | 34881 ft | 450 kts | 31° |
| 2026-05-07 05:02 | 47.64985 | -115.39647 | 34870 ft | 451 kts | 31° |
| 2026-05-07 05:03 | 47.69703 | -115.33494 | 34887 ft | 452 kts | 31° |
| 2026-05-07 05:03 | 47.74433 | -115.27324 | 34883 ft | 453 kts | 31° |
| 2026-05-07 05:04 | 47.79174 | -115.21105 | 34923 ft | 454 kts | 31° |
| 2026-05-07 05:04 | 47.83916 | -115.14892 | 34891 ft | 454 kts | 31° |
| 2026-05-07 05:05 | 47.88645 | -115.08670 | 34868 ft | 453 kts | 31° |
| 2026-05-07 05:05 | 47.93363 | -115.02445 | 34885 ft | 452 kts | 31° |
| 2026-05-07 05:06 | 47.98032 | -114.96273 | 34892 ft | 451 kts | 31° |
| 2026-05-07 05:06 | 48.02729 | -114.90049 | 34885 ft | 452 kts | 31° |
| 2026-05-07 05:07 | 48.07423 | -114.83809 | 34889 ft | 451 kts | 31° |
| 2026-05-07 05:07 | 48.12103 | -114.77569 | 34894 ft | 450 kts | 31° |
| 2026-05-07 05:08 | 48.16777 | -114.71326 | 34881 ft | 449 kts | 31° |
| 2026-05-07 05:08 | 48.21441 | -114.65084 | 34917 ft | 450 kts | 32° |
| 2026-05-07 05:09 | 48.26107 | -114.58820 | 34899 ft | 451 kts | 32° |
| 2026-05-07 05:09 | 48.30750 | -114.52574 | 34892 ft | 451 kts | 32° |
| 2026-05-07 05:10 | 48.35422 | -114.46268 | 34907 ft | 451 kts | 32° |
| 2026-05-07 05:10 | 48.40099 | -114.39934 | 34916 ft | 453 kts | 32° |
| 2026-05-07 05:11 | 48.44795 | -114.33567 | 34947 ft | 455 kts | 32° |
| 2026-05-07 05:11 | 48.49502 | -114.27165 | 34934 ft | 456 kts | 33° |
| 2026-05-07 05:12 | 48.54210 | -114.20744 | 34891 ft | 457 kts | 33° |
| 2026-05-07 05:12 | 48.58923 | -114.14299 | 34907 ft | 457 kts | 33° |
| 2026-05-07 05:13 | 48.63640 | -114.07833 | 34902 ft | 458 kts | 34° |
| 2026-05-07 05:13 | 48.68359 | -114.01346 | 34898 ft | 458 kts | 34° |
| 2026-05-07 05:14 | 48.73051 | -113.94877 | 34878 ft | 457 kts | 34° |
| 2026-05-07 05:14 | 48.77721 | -113.88425 | 34888 ft | 457 kts | 34° |
| 2026-05-07 05:15 | 48.82413 | -113.81924 | 34921 ft | 457 kts | 34° |
| 2026-05-07 05:15 | 48.87099 | -113.75421 | 34871 ft | 457 kts | 36° |
| 2026-05-07 05:16 | 48.91021 | -113.69964 | 34871 ft | 456 kts | 36° |
| 2026-05-07 05:16 | 48.95676 | -113.63456 | 34857 ft | 458 kts | 36° |
| 2026-05-07 05:17 | 49.00375 | -113.56881 | 34845 ft | 459 kts | 36° |
| 2026-05-07 05:17 | 49.05083 | -113.50270 | 34846 ft | 460 kts | 36° |
| 2026-05-07 05:18 | 49.09782 | -113.43649 | 34834 ft | 461 kts | 36° |
| 2026-05-07 05:18 | 49.14488 | -113.36998 | 34816 ft | 461 kts | 36° |
| 2026-05-07 05:19 | 49.19201 | -113.30322 | 34829 ft | 461 kts | 36° |
| 2026-05-07 05:19 | 49.23871 | -113.23687 | 34815 ft | 461 kts | 36° |
| 2026-05-07 05:20 | 49.28596 | -113.16956 | 34817 ft | 461 kts | 36° |
| 2026-05-07 05:20 | 49.33282 | -113.10263 | 34812 ft | 460 kts | 37° |
| 2026-05-07 05:21 | 49.40268 | -113.00250 | 34830 ft | 459 kts | 37° |
| 2026-05-07 05:22 | 49.44936 | -112.93538 | 34835 ft | 459 kts | 37° |
| 2026-05-07 05:22 | 49.49592 | -112.86824 | 34851 ft | 458 kts | 37° |
| 2026-05-07 05:23 | 49.54235 | -112.80106 | 34850 ft | 458 kts | 37° |
| 2026-05-07 05:23 | 49.58870 | -112.73389 | 34851 ft | 457 kts | 37° |
| 2026-05-07 05:24 | 49.63511 | -112.66678 | 34850 ft | 456 kts | 35° |
| 2026-05-07 05:24 | 49.68485 | -112.60832 | 34848 ft | 450 kts | 29° |
| 2026-05-07 05:25 | 49.73615 | -112.55273 | 34838 ft | 450 kts | 29° |
| 2026-05-07 05:25 | 49.78731 | -112.49674 | 34826 ft | 451 kts | 30° |
| 2026-05-07 05:26 | 49.83825 | -112.44003 | 34831 ft | 452 kts | 30° |
| 2026-05-07 05:26 | 49.88929 | -112.38268 | 34833 ft | 453 kts | 30° |
| 2026-05-07 05:27 | 49.94001 | -112.32547 | 34847 ft | 454 kts | 31° |
| 2026-05-07 05:27 | 49.99117 | -112.26762 | 34846 ft | 455 kts | 31° |
| 2026-05-07 05:28 | 50.04243 | -112.20952 | 34853 ft | 456 kts | 31° |
| 2026-05-07 05:28 | 50.09377 | -112.15118 | 34850 ft | 457 kts | 31° |
| 2026-05-07 05:29 | 50.14519 | -112.09258 | 34856 ft | 458 kts | 31° |
| 2026-05-07 05:29 | 50.19665 | -112.03376 | 34864 ft | 459 kts | 32° |
| 2026-05-07 05:30 | 50.24818 | -111.97474 | 34870 ft | 460 kts | 32° |
| 2026-05-07 05:30 | 50.29947 | -111.91582 | 34876 ft | 461 kts | 32° |
| 2026-05-07 05:31 | 50.35117 | -111.85627 | 34885 ft | 461 kts | 32° |
| 2026-05-07 05:31 | 50.40275 | -111.79667 | 34880 ft | 461 kts | 32° |
| 2026-05-07 05:32 | 50.45442 | -111.73683 | 34887 ft | 461 kts | 33° |
| 2026-05-07 05:32 | 50.50602 | -111.67688 | 34890 ft | 462 kts | 33° |
| 2026-05-07 05:33 | 50.55769 | -111.61669 | 34891 ft | 462 kts | 33° |
| 2026-05-07 05:33 | 50.60934 | -111.55636 | 34892 ft | 462 kts | 33° |
| 2026-05-07 05:34 | 50.66059 | -111.49633 | 34891 ft | 462 kts | 33° |
| 2026-05-07 05:34 | 50.71217 | -111.43573 | 34895 ft | 463 kts | 33° |
| 2026-05-07 05:35 | 50.76374 | -111.37499 | 34898 ft | 463 kts | 33° |
| 2026-05-07 05:35 | 50.81532 | -111.31406 | 34895 ft | 463 kts | 33° |
| 2026-05-07 05:36 | 50.86692 | -111.25293 | 34905 ft | 463 kts | 33° |
| 2026-05-07 05:36 | 50.91844 | -111.19171 | 34901 ft | 463 kts | 33° |
| 2026-05-07 05:37 | 50.96991 | -111.13039 | 34916 ft | 462 kts | 33° |
| 2026-05-07 05:37 | 51.02116 | -111.06915 | 34904 ft | 461 kts | 33° |
| 2026-05-07 05:38 | 51.07231 | -111.00787 | 34911 ft | 460 kts | 33° |
| 2026-05-07 05:38 | 51.12295 | -110.94702 | 34921 ft | 459 kts | 34° |
| 2026-05-07 05:39 | 51.17380 | -110.88575 | 34913 ft | 458 kts | 34° |
| 2026-05-07 05:39 | 51.22454 | -110.82443 | 34923 ft | 457 kts | 33° |
| 2026-05-07 05:40 | 51.27520 | -110.76305 | 34915 ft | 456 kts | 33° |
| 2026-05-07 05:40 | 51.32569 | -110.70169 | 34918 ft | 456 kts | 33° |
| 2026-05-07 05:41 | 51.37609 | -110.64028 | 34919 ft | 455 kts | 33° |
| 2026-05-07 05:41 | 51.42647 | -110.57870 | 34919 ft | 454 kts | 33° |
| 2026-05-07 05:42 | 51.47639 | -110.51752 | 34927 ft | 454 kts | 33° |
| 2026-05-07 05:42 | 51.52653 | -110.45589 | 34919 ft | 454 kts | 33° |
| 2026-05-07 05:43 | 51.57665 | -110.39411 | 34924 ft | 454 kts | 33° |
| 2026-05-07 05:43 | 51.62670 | -110.33224 | 34928 ft | 454 kts | 33° |
| 2026-05-07 05:44 | 51.67665 | -110.27032 | 34926 ft | 454 kts | 33° |
| 2026-05-07 05:44 | 51.72674 | -110.20802 | 34939 ft | 454 kts | 33° |
| 2026-05-07 05:45 | 51.77675 | -110.14567 | 34938 ft | 454 kts | 33° |
| 2026-05-07 05:45 | 51.82639 | -110.08360 | 34935 ft | 454 kts | 33° |
| 2026-05-07 05:46 | 51.87625 | -110.02109 | 34939 ft | 454 kts | 33° |
| 2026-05-07 05:46 | 51.92492 | -109.95572 | 34939 ft | 456 kts | 38° |
| 2026-05-07 05:47 | 51.97163 | -109.88606 | 34962 ft | 456 kts | 38° |
| 2026-05-07 05:47 | 52.01815 | -109.81587 | 34938 ft | 455 kts | 38° |
| 2026-05-07 05:48 | 52.06464 | -109.74627 | 34937 ft | 453 kts | 38° |
| 2026-05-07 05:48 | 52.11081 | -109.67741 | 34940 ft | 453 kts | 38° |
| 2026-05-07 05:49 | 52.15718 | -109.60821 | 34943 ft | 452 kts | 38° |
| 2026-05-07 05:49 | 52.20359 | -109.53872 | 34948 ft | 451 kts | 38° |
| 2026-05-07 05:50 | 52.24982 | -109.46930 | 34952 ft | 451 kts | 38° |
| 2026-05-07 05:50 | 52.29602 | -109.39969 | 34957 ft | 452 kts | 38° |
| 2026-05-07 05:51 | 52.34182 | -109.33048 | 34959 ft | 452 kts | 38° |
| 2026-05-07 05:51 | 52.38830 | -109.26002 | 34954 ft | 452 kts | 38° |
| 2026-05-07 05:52 | 52.43412 | -109.19035 | 34974 ft | 453 kts | 38° |
| 2026-05-07 05:52 | 52.48024 | -109.12001 | 34960 ft | 452 kts | 38° |
| 2026-05-07 05:53 | 52.52617 | -109.04977 | 34957 ft | 451 kts | 38° |
| 2026-05-07 05:53 | 52.57208 | -108.97934 | 34960 ft | 450 kts | 38° |
| 2026-05-07 05:54 | 52.61778 | -108.90903 | 34957 ft | 450 kts | 38° |
| 2026-05-07 05:54 | 52.66349 | -108.83847 | 34989 ft | 449 kts | 38° |
| 2026-05-07 05:55 | 52.70893 | -108.76813 | 34968 ft | 447 kts | 38° |
| 2026-05-07 05:55 | 52.75411 | -108.69799 | 34949 ft | 445 kts | 38° |
| 2026-05-07 05:56 | 52.79875 | -108.62848 | 34947 ft | 444 kts | 38° |
| 2026-05-07 05:56 | 52.84357 | -108.55849 | 34938 ft | 443 kts | 38° |
| 2026-05-07 05:57 | 52.88828 | -108.48845 | 34978 ft | 442 kts | 38° |
| 2026-05-07 05:57 | 52.93286 | -108.41840 | 34942 ft | 441 kts | 37° |
| 2026-05-07 05:58 | 52.97737 | -108.34827 | 34937 ft | 441 kts | 37° |
| 2026-05-07 05:58 | 53.02169 | -108.27823 | 34961 ft | 440 kts | 37° |
| 2026-05-07 05:59 | 53.06600 | -108.20799 | 34951 ft | 439 kts | 38° |
| 2026-05-07 05:59 | 53.11018 | -108.13774 | 34963 ft | 439 kts | 38° |
| 2026-05-07 06:00 | 53.15406 | -108.06776 | 34970 ft | 440 kts | 37° |
| 2026-05-07 06:00 | 53.19823 | -107.99712 | 34973 ft | 440 kts | 37° |
| 2026-05-07 06:01 | 53.24237 | -107.92632 | 34970 ft | 440 kts | 38° |
| 2026-05-07 06:01 | 53.28655 | -107.85522 | 34970 ft | 440 kts | 38° |
| 2026-05-07 06:02 | 53.33064 | -107.78405 | 34967 ft | 440 kts | 38° |
| 2026-05-07 06:02 | 53.37470 | -107.71271 | 34984 ft | 441 kts | 38° |
| 2026-05-07 06:03 | 53.41873 | -107.64119 | 34971 ft | 440 kts | 38° |
| 2026-05-07 06:03 | 53.46270 | -107.56957 | 34968 ft | 440 kts | 38° |
| 2026-05-07 06:04 | 53.50622 | -107.49845 | 34967 ft | 439 kts | 38° |
| 2026-05-07 06:04 | 53.54996 | -107.42679 | 34970 ft | 439 kts | 38° |
| 2026-05-07 06:05 | 53.58624 | -107.36719 | 34973 ft | 438 kts | 38° |
| 2026-05-07 06:05 | 53.63289 | -107.30243 | 34972 ft | 432 kts | 31° |
| 2026-05-07 06:06 | 53.68122 | -107.24232 | 34963 ft | 431 kts | 30° |
| 2026-05-07 06:06 | 53.72934 | -107.18194 | 34967 ft | 431 kts | 31° |
| 2026-05-07 06:07 | 53.77715 | -107.12093 | 34975 ft | 430 kts | 31° |
| 2026-05-07 06:07 | 53.82483 | -107.05960 | 34973 ft | 431 kts | 31° |
| 2026-05-07 06:08 | 53.87251 | -106.99806 | 34978 ft | 431 kts | 31° |
| 2026-05-07 06:08 | 53.92022 | -106.93633 | 34989 ft | 431 kts | 31° |
| 2026-05-07 06:09 | 53.96763 | -106.87480 | 34981 ft | 431 kts | 31° |
| 2026-05-07 06:09 | 54.01524 | -106.81283 | 34982 ft | 431 kts | 31° |
| 2026-05-07 06:10 | 54.06277 | -106.75079 | 34983 ft | 430 kts | 31° |
| 2026-05-07 06:10 | 54.11024 | -106.68866 | 34985 ft | 431 kts | 32° |
| 2026-05-07 06:11 | 54.15773 | -106.62630 | 34993 ft | 431 kts | 32° |
| 2026-05-07 06:11 | 54.20516 | -106.56378 | 34989 ft | 430 kts | 32° |
| 2026-05-07 06:12 | 54.25236 | -106.50137 | 34988 ft | 428 kts | 32° |
| 2026-05-07 06:12 | 54.29937 | -106.43904 | 34995 ft | 427 kts | 32° |
| 2026-05-07 06:13 | 54.34603 | -106.37702 | 34992 ft | 426 kts | 32° |
| 2026-05-07 06:13 | 54.39276 | -106.31469 | 34997 ft | 425 kts | 32° |
| 2026-05-07 06:14 | 54.43948 | -106.25221 | 34994 ft | 425 kts | 32° |
| 2026-05-07 06:14 | 54.48606 | -106.18973 | 35006 ft | 425 kts | 32° |
| 2026-05-07 06:15 | 54.53262 | -106.12707 | 35002 ft | 424 kts | 32° |
| 2026-05-07 06:15 | 54.57874 | -106.06482 | 34998 ft | 423 kts | 32° |
| 2026-05-07 06:16 | 54.62491 | -106.00233 | 35003 ft | 423 kts | 32° |
| 2026-05-07 06:16 | 54.67120 | -105.93949 | 35004 ft | 423 kts | 32° |
| 2026-05-07 06:17 | 54.71740 | -105.87659 | 35009 ft | 423 kts | 32° |
| 2026-05-07 06:17 | 54.76355 | -105.81356 | 35006 ft | 423 kts | 32° |
| 2026-05-07 06:18 | 54.80979 | -105.75022 | 35005 ft | 423 kts | 32° |
| 2026-05-07 06:18 | 54.85605 | -105.68668 | 35006 ft | 424 kts | 32° |
| 2026-05-07 06:19 | 54.90194 | -105.62343 | 35005 ft | 424 kts | 32° |
| 2026-05-07 06:19 | 54.94831 | -105.55934 | 35001 ft | 425 kts | 32° |
| 2026-05-07 06:20 | 54.99459 | -105.49518 | 34985 ft | 426 kts | 32° |
| 2026-05-07 06:20 | 55.04095 | -105.43069 | 34983 ft | 426 kts | 32° |
| 2026-05-07 06:21 | 55.08727 | -105.36607 | 34976 ft | 426 kts | 32° |
| 2026-05-07 06:21 | 55.13354 | -105.30135 | 34972 ft | 426 kts | 32° |
| 2026-05-07 06:22 | 55.17602 | -105.22913 | 34965 ft | 437 kts | 45° |
| 2026-05-07 06:22 | 55.23133 | -105.10211 | 34980 ft | 437 kts | 46° |
| 2026-05-07 06:23 | 55.26814 | -105.01746 | 35031 ft | 437 kts | 46° |
| 2026-05-07 06:23 | 55.30511 | -104.93278 | 35032 ft | 436 kts | 45° |
| 2026-05-07 06:24 | 55.34198 | -104.84827 | 35023 ft | 436 kts | 46° |
| 2026-05-07 06:24 | 55.37880 | -104.76364 | 35023 ft | 435 kts | 46° |
| 2026-05-07 06:25 | 55.41545 | -104.67911 | 35023 ft | 435 kts | 46° |
| 2026-05-07 06:25 | 55.45209 | -104.59429 | 35020 ft | 434 kts | 46° |
| 2026-05-07 06:26 | 55.48841 | -104.50992 | 35029 ft | 435 kts | 46° |
| 2026-05-07 06:26 | 55.52480 | -104.42509 | 35023 ft | 434 kts | 46° |
| 2026-05-07 06:27 | 55.56120 | -104.33994 | 35019 ft | 434 kts | 46° |
| 2026-05-07 06:27 | 55.59745 | -104.25483 | 35022 ft | 433 kts | 46° |
| 2026-05-07 06:28 | 55.63362 | -104.16965 | 35021 ft | 433 kts | 46° |
| 2026-05-07 06:28 | 55.66972 | -104.08430 | 35065 ft | 433 kts | 46° |
| 2026-05-07 06:29 | 55.70571 | -103.99892 | 35026 ft | 432 kts | 46° |
| 2026-05-07 06:29 | 55.74155 | -103.91360 | 35025 ft | 431 kts | 46° |
| 2026-05-07 06:30 | 55.77725 | -103.82831 | 35020 ft | 430 kts | 46° |
| 2026-05-07 06:30 | 55.81262 | -103.74354 | 35014 ft | 429 kts | 46° |
| 2026-05-07 06:31 | 55.84809 | -103.65824 | 35019 ft | 429 kts | 46° |
| 2026-05-07 06:31 | 55.88363 | -103.57248 | 35034 ft | 431 kts | 46° |
| 2026-05-07 06:32 | 55.91914 | -103.48649 | 35033 ft | 432 kts | 46° |
| 2026-05-07 06:32 | 55.95476 | -103.39988 | 35031 ft | 432 kts | 46° |
| 2026-05-07 06:33 | 55.99028 | -103.31322 | 35023 ft | 433 kts | 47° |
| 2026-05-07 06:33 | 56.02580 | -103.22625 | 35036 ft | 433 kts | 47° |
| 2026-05-07 06:34 | 56.06104 | -103.13966 | 35070 ft | 435 kts | 47° |
| 2026-05-07 06:34 | 56.09673 | -103.05169 | 35050 ft | 436 kts | 47° |
| 2026-05-07 06:35 | 56.13237 | -102.96352 | 35035 ft | 437 kts | 47° |
| 2026-05-07 06:35 | 56.16800 | -102.87486 | 35032 ft | 438 kts | 47° |
| 2026-05-07 06:36 | 56.20355 | -102.78593 | 35038 ft | 438 kts | 47° |
| 2026-05-07 06:36 | 56.23881 | -102.69740 | 35038 ft | 438 kts | 47° |
| 2026-05-07 06:37 | 56.27435 | -102.60792 | 35046 ft | 440 kts | 49° |
| 2026-05-07 06:37 | 56.30997 | -102.51786 | 35041 ft | 442 kts | 49° |
| 2026-05-07 06:38 | 56.34556 | -102.42758 | 35039 ft | 442 kts | 49° |
| 2026-05-07 06:38 | 56.38117 | -102.33705 | 35041 ft | 442 kts | 49° |
| 2026-05-07 06:39 | 56.41675 | -102.24637 | 35038 ft | 443 kts | 49° |
| 2026-05-07 06:39 | 56.45209 | -102.15596 | 35058 ft | 443 kts | 50° |
| 2026-05-07 06:40 | 56.48764 | -102.06465 | 35046 ft | 444 kts | 50° |
| 2026-05-07 06:40 | 56.52324 | -101.97284 | 35043 ft | 445 kts | 50° |
| 2026-05-07 06:41 | 56.55884 | -101.88069 | 35028 ft | 446 kts | 50° |
| 2026-05-07 06:41 | 56.59433 | -101.78845 | 35036 ft | 446 kts | 50° |
| 2026-05-07 06:42 | 56.62976 | -101.69604 | 35034 ft | 446 kts | 50° |
| 2026-05-07 06:42 | 56.66524 | -101.60315 | 35039 ft | 447 kts | 51° |
| 2026-05-07 06:43 | 56.70045 | -101.51060 | 35035 ft | 448 kts | 51° |
| 2026-05-07 06:43 | 56.73586 | -101.41717 | 35035 ft | 448 kts | 51° |
| 2026-05-07 06:44 | 56.77121 | -101.32354 | 35033 ft | 448 kts | 51° |
| 2026-05-07 06:44 | 56.80651 | -101.22967 | 34957 ft | 448 kts | 51° |
| 2026-05-07 06:45 | 56.84172 | -101.13575 | 34955 ft | 448 kts | 51° |
| 2026-05-07 06:45 | 56.88158 | -101.04959 | 34949 ft | 440 kts | 36° |
| 2026-05-07 06:46 | 56.92979 | -100.98138 | 34950 ft | 438 kts | 33° |
| 2026-05-07 06:46 | 56.97837 | -100.91405 | 35029 ft | 438 kts | 33° |
| 2026-05-07 06:47 | 57.02657 | -100.84645 | 35021 ft | 439 kts | 34° |
| 2026-05-07 06:47 | 57.07496 | -100.77785 | 35021 ft | 439 kts | 34° |
| 2026-05-07 06:48 | 57.12322 | -100.70902 | 35022 ft | 439 kts | 34° |
| 2026-05-07 06:48 | 57.17166 | -100.63970 | 35033 ft | 441 kts | 34° |
| 2026-05-07 06:49 | 57.22009 | -100.57013 | 35018 ft | 441 kts | 34° |
| 2026-05-07 06:49 | 57.26848 | -100.50038 | 35016 ft | 442 kts | 35° |
| 2026-05-07 06:50 | 57.31693 | -100.43033 | 35020 ft | 442 kts | 35° |
| 2026-05-07 06:50 | 57.36541 | -100.36000 | 35016 ft | 442 kts | 35° |
| 2026-05-07 06:51 | 57.41383 | -100.28950 | 35023 ft | 442 kts | 35° |
| 2026-05-07 06:51 | 57.46226 | -100.21876 | 35039 ft | 442 kts | 35° |
| 2026-05-07 06:52 | 57.51035 | -100.14829 | 35021 ft | 443 kts | 35° |
| 2026-05-07 06:52 | 57.55875 | -100.07707 | 35011 ft | 444 kts | 36° |
| 2026-05-07 06:53 | 57.60717 | -100.00558 | 35013 ft | 444 kts | 36° |
| 2026-05-07 06:53 | 57.65550 | -99.93398 | 35011 ft | 444 kts | 36° |
| 2026-05-07 06:54 | 57.69569 | -99.87424 | 35011 ft | 444 kts | 36° |
| 2026-05-07 06:54 | 57.74411 | -99.80205 | 35011 ft | 444 kts | 36° |
| 2026-05-07 06:55 | 57.79235 | -99.72989 | 35029 ft | 444 kts | 36° |
| 2026-05-07 06:55 | 57.84060 | -99.65745 | 35015 ft | 444 kts | 36° |
| 2026-05-07 06:56 | 57.88876 | -99.58486 | 35007 ft | 444 kts | 36° |
| 2026-05-07 06:56 | 57.93694 | -99.51201 | 35009 ft | 444 kts | 36° |
| 2026-05-07 06:57 | 57.98511 | -99.43891 | 35008 ft | 444 kts | 36° |
| 2026-05-07 06:57 | 58.03294 | -99.36607 | 35010 ft | 444 kts | 36° |
| 2026-05-07 06:58 | 58.08096 | -99.29267 | 35004 ft | 444 kts | 37° |
| 2026-05-07 06:58 | 58.12898 | -99.21905 | 35025 ft | 444 kts | 37° |
| 2026-05-07 06:59 | 58.17693 | -99.14522 | 35006 ft | 444 kts | 37° |
| 2026-05-07 06:59 | 58.22484 | -99.07120 | 35005 ft | 444 kts | 37° |
| 2026-05-07 07:00 | 58.27266 | -98.99705 | 35007 ft | 443 kts | 37° |
| 2026-05-07 07:00 | 58.32003 | -98.92335 | 35008 ft | 443 kts | 37° |
| 2026-05-07 07:01 | 58.36771 | -98.84889 | 35005 ft | 443 kts | 37° |
| 2026-05-07 07:01 | 58.41543 | -98.77410 | 34992 ft | 443 kts | 37° |
| 2026-05-07 07:02 | 58.46304 | -98.69922 | 34986 ft | 444 kts | 37° |
| 2026-05-07 07:02 | 58.51069 | -98.62399 | 34964 ft | 444 kts | 37° |
| 2026-05-07 07:03 | 58.55794 | -98.54913 | 34949 ft | 443 kts | 38° |
| 2026-05-07 07:03 | 58.60535 | -98.47374 | 34939 ft | 443 kts | 38° |
| 2026-05-07 07:04 | 58.65275 | -98.39809 | 34996 ft | 443 kts | 38° |
| 2026-05-07 07:04 | 58.70006 | -98.32231 | 34997 ft | 443 kts | 38° |
| 2026-05-07 07:05 | 58.74737 | -98.24625 | 34987 ft | 443 kts | 38° |
| 2026-05-07 07:05 | 58.79457 | -98.17010 | 34988 ft | 443 kts | 38° |
| 2026-05-07 07:06 | 58.84177 | -98.09364 | 34982 ft | 442 kts | 38° |
| 2026-05-07 07:06 | 58.88887 | -98.01709 | 34976 ft | 442 kts | 38° |
| 2026-05-07 07:07 | 58.93555 | -97.94094 | 34971 ft | 442 kts | 38° |
| 2026-05-07 07:07 | 58.98248 | -97.86409 | 34966 ft | 442 kts | 38° |
| 2026-05-07 07:08 | 59.02936 | -97.78704 | 34970 ft | 442 kts | 38° |
| 2026-05-07 07:08 | 59.07621 | -97.70975 | 34968 ft | 442 kts | 38° |
| 2026-05-07 07:09 | 59.12307 | -97.63216 | 34976 ft | 442 kts | 38° |
| 2026-05-07 07:09 | 59.16990 | -97.55433 | 34963 ft | 442 kts | 38° |
| 2026-05-07 07:10 | 59.21665 | -97.47634 | 34960 ft | 443 kts | 38° |
| 2026-05-07 07:10 | 59.26346 | -97.39797 | 34952 ft | 443 kts | 38° |
| 2026-05-07 07:11 | 59.31018 | -97.31944 | 34952 ft | 443 kts | 38° |
| 2026-05-07 07:11 | 59.35657 | -97.24119 | 34948 ft | 443 kts | 38° |
| 2026-05-07 07:12 | 59.40319 | -97.16224 | 34938 ft | 443 kts | 38° |
| 2026-05-07 07:12 | 59.44976 | -97.08307 | 34947 ft | 444 kts | 38° |
| 2026-05-07 07:13 | 59.49646 | -97.00340 | 34929 ft | 444 kts | 39° |
| 2026-05-07 07:13 | 59.54308 | -96.92355 | 34924 ft | 444 kts | 39° |
| 2026-05-07 07:14 | 59.58962 | -96.84352 | 34921 ft | 444 kts | 39° |
| 2026-05-07 07:14 | 59.63621 | -96.76311 | 34909 ft | 444 kts | 39° |
| 2026-05-07 07:15 | 59.68270 | -96.68257 | 34911 ft | 444 kts | 39° |
| 2026-05-07 07:15 | 59.72888 | -96.60226 | 34907 ft | 444 kts | 39° |
| 2026-05-07 07:16 | 59.77524 | -96.52133 | 34906 ft | 444 kts | 39° |
| 2026-05-07 07:16 | 59.82167 | -96.43996 | 34898 ft | 444 kts | 39° |
| 2026-05-07 07:17 | 59.86799 | -96.35845 | 34889 ft | 444 kts | 39° |
| 2026-05-07 07:17 | 59.91387 | -96.27743 | 34891 ft | 444 kts | 39° |
| 2026-05-07 07:18 | 59.96005 | -96.19555 | 34888 ft | 444 kts | 39° |
| 2026-05-07 07:18 | 60.00614 | -96.11352 | 34888 ft | 444 kts | 39° |
| 2026-05-07 07:19 | 60.05229 | -96.03105 | 34863 ft | 444 kts | 39° |
| 2026-05-07 07:19 | 60.09836 | -95.94841 | 34871 ft | 444 kts | 39° |
| 2026-05-07 07:20 | 60.14441 | -95.86547 | 34848 ft | 444 kts | 39° |
| 2026-05-07 07:20 | 60.19037 | -95.78237 | 34850 ft | 445 kts | 39° |
| 2026-05-07 07:21 | 60.23631 | -95.69898 | 34847 ft | 445 kts | 40° |
| 2026-05-07 07:21 | 60.28221 | -95.61535 | 34830 ft | 445 kts | 40° |
| 2026-05-07 07:22 | 60.32807 | -95.53145 | 34828 ft | 445 kts | 40° |
| 2026-05-07 07:22 | 60.37357 | -95.44788 | 34820 ft | 445 kts | 40° |
| 2026-05-07 07:23 | 60.41955 | -95.36310 | 34834 ft | 445 kts | 40° |
| 2026-05-07 07:23 | 60.46508 | -95.27880 | 34822 ft | 446 kts | 40° |
| 2026-05-07 07:24 | 60.51070 | -95.19399 | 34810 ft | 447 kts | 40° |
| 2026-05-07 07:24 | 60.55648 | -95.10855 | 34804 ft | 447 kts | 40° |
| 2026-05-07 07:25 | 60.62505 | -94.97992 | 34803 ft | 447 kts | 41° |
| 2026-05-07 07:26 | 60.67069 | -94.89388 | 34790 ft | 447 kts | 41° |
| 2026-05-07 07:26 | 60.71597 | -94.80819 | 34792 ft | 446 kts | 41° |
| 2026-05-07 07:27 | 60.76152 | -94.72162 | 34802 ft | 447 kts | 41° |
| 2026-05-07 07:27 | 60.80709 | -94.63466 | 34791 ft | 448 kts | 41° |
| 2026-05-07 07:28 | 60.85255 | -94.54754 | 34779 ft | 448 kts | 41° |
| 2026-05-07 07:28 | 60.89802 | -94.46007 | 34775 ft | 448 kts | 41° |
| 2026-05-07 07:29 | 60.94345 | -94.37230 | 34768 ft | 448 kts | 41° |
| 2026-05-07 07:29 | 60.98883 | -94.28426 | 34758 ft | 448 kts | 41° |
| 2026-05-07 07:30 | 61.03410 | -94.19608 | 34758 ft | 447 kts | 41° |
| 2026-05-07 07:30 | 61.07931 | -94.10771 | 34771 ft | 448 kts | 42° |
| 2026-05-07 07:31 | 61.12077 | -94.01167 | 34768 ft | 450 kts | 52° |
| 2026-05-07 07:31 | 61.15725 | -93.90730 | 34756 ft | 451 kts | 52° |
| 2026-05-07 07:32 | 61.19376 | -93.80185 | 34741 ft | 451 kts | 52° |
| 2026-05-07 07:32 | 61.23045 | -93.69646 | 34745 ft | 451 kts | 52° |
| 2026-05-07 07:33 | 61.26724 | -93.59094 | 34722 ft | 451 kts | 52° |
| 2026-05-07 07:33 | 61.30401 | -93.48520 | 34732 ft | 450 kts | 52° |
| 2026-05-07 07:34 | 61.34064 | -93.37934 | 34722 ft | 451 kts | 52° |
| 2026-05-07 07:34 | 61.37738 | -93.27268 | 34695 ft | 451 kts | 52° |
| 2026-05-07 07:35 | 61.41389 | -93.16618 | 34693 ft | 451 kts | 52° |
| 2026-05-07 07:35 | 61.45036 | -93.05929 | 34686 ft | 451 kts | 53° |
| 2026-05-07 07:36 | 61.48673 | -92.95220 | 34684 ft | 451 kts | 53° |
| 2026-05-07 07:36 | 61.52283 | -92.84541 | 34680 ft | 452 kts | 53° |
| 2026-05-07 07:37 | 61.55905 | -92.73779 | 34669 ft | 452 kts | 53° |
| 2026-05-07 07:37 | 61.59522 | -92.62980 | 34669 ft | 453 kts | 53° |
| 2026-05-07 07:38 | 61.63160 | -92.52065 | 34650 ft | 453 kts | 53° |
| 2026-05-07 07:38 | 61.66748 | -92.41250 | 34654 ft | 453 kts | 53° |
| 2026-05-07 07:39 | 61.70356 | -92.30323 | 34656 ft | 454 kts | 53° |
| 2026-05-07 07:39 | 61.73956 | -92.19369 | 34644 ft | 454 kts | 53° |
| 2026-05-07 07:40 | 61.76938 | -92.10257 | 34655 ft | 454 kts | 53° |
| 2026-05-07 07:40 | 61.81123 | -91.97407 | 34634 ft | 455 kts | 54° |
| 2026-05-07 07:41 | 61.84097 | -91.88228 | 34630 ft | 455 kts | 54° |
| 2026-05-07 07:41 | 61.87673 | -91.77147 | 34628 ft | 455 kts | 54° |
| 2026-05-07 07:42 | 61.91242 | -91.66033 | 34617 ft | 456 kts | 54° |
| 2026-05-07 07:42 | 61.94800 | -91.54893 | 34615 ft | 455 kts | 54° |
| 2026-05-07 07:43 | 61.98349 | -91.43737 | 34622 ft | 456 kts | 54° |
| 2026-05-07 07:43 | 62.01896 | -91.32529 | 34618 ft | 456 kts | 54° |
| 2026-05-07 07:44 | 62.05430 | -91.21308 | 34616 ft | 456 kts | 54° |
| 2026-05-07 07:44 | 62.08931 | -91.10135 | 34597 ft | 456 kts | 54° |
| 2026-05-07 07:45 | 62.12446 | -90.98865 | 34596 ft | 456 kts | 54° |
| 2026-05-07 07:45 | 62.15957 | -90.87551 | 34595 ft | 456 kts | 55° |
| 2026-05-07 07:46 | 62.19453 | -90.76228 | 34591 ft | 456 kts | 55° |
| 2026-05-07 07:46 | 62.22941 | -90.64874 | 34588 ft | 456 kts | 55° |
| 2026-05-07 07:47 | 62.26396 | -90.53576 | 34579 ft | 455 kts | 55° |
| 2026-05-07 07:47 | 62.29858 | -90.42195 | 34580 ft | 455 kts | 55° |
| 2026-05-07 07:48 | 62.33307 | -90.30801 | 34581 ft | 455 kts | 56° |
| 2026-05-07 07:48 | 62.36749 | -90.19372 | 34571 ft | 454 kts | 56° |
| 2026-05-07 07:49 | 62.40185 | -90.07906 | 34573 ft | 454 kts | 56° |
| 2026-05-07 07:49 | 62.43607 | -89.96430 | 34585 ft | 454 kts | 56° |
| 2026-05-07 07:50 | 62.47020 | -89.84928 | 34577 ft | 455 kts | 56° |
| 2026-05-07 07:50 | 62.50398 | -89.73481 | 34577 ft | 455 kts | 56° |
| 2026-05-07 07:51 | 62.53803 | -89.61889 | 34569 ft | 454 kts | 56° |
| 2026-05-07 07:51 | 62.57185 | -89.50313 | 34572 ft | 453 kts | 57° |
| 2026-05-07 07:52 | 62.60551 | -89.38734 | 34555 ft | 453 kts | 57° |
| 2026-05-07 07:52 | 62.63904 | -89.27142 | 34561 ft | 452 kts | 57° |
| 2026-05-07 07:53 | 62.67238 | -89.15555 | 34566 ft | 452 kts | 57° |
| 2026-05-07 07:53 | 62.70573 | -89.03906 | 34558 ft | 452 kts | 57° |
| 2026-05-07 07:54 | 62.73877 | -88.92304 | 34558 ft | 452 kts | 57° |
| 2026-05-07 07:54 | 62.77184 | -88.80631 | 34549 ft | 452 kts | 57° |
| 2026-05-07 07:55 | 62.80484 | -88.68924 | 34556 ft | 452 kts | 57° |
| 2026-05-07 07:55 | 62.83768 | -88.57213 | 34552 ft | 451 kts | 58° |
| 2026-05-07 07:56 | 62.87038 | -88.45489 | 34552 ft | 450 kts | 58° |
| 2026-05-07 07:56 | 62.90292 | -88.33764 | 34552 ft | 449 kts | 58° |
| 2026-05-07 07:57 | 62.93527 | -88.22047 | 34549 ft | 448 kts | 58° |
| 2026-05-07 07:57 | 62.96745 | -88.10329 | 34540 ft | 448 kts | 58° |
| 2026-05-07 07:58 | 62.99957 | -87.98573 | 34549 ft | 448 kts | 58° |
| 2026-05-07 07:58 | 63.03157 | -87.86796 | 34538 ft | 448 kts | 58° |
| 2026-05-07 07:59 | 63.06344 | -87.75008 | 34537 ft | 448 kts | 58° |
| 2026-05-07 07:59 | 63.09502 | -87.63266 | 34540 ft | 448 kts | 59° |
| 2026-05-07 08:00 | 63.12668 | -87.51432 | 34527 ft | 447 kts | 59° |
| 2026-05-07 08:00 | 63.15822 | -87.39581 | 34538 ft | 446 kts | 59° |
| 2026-05-07 08:01 | 63.18959 | -87.27727 | 34537 ft | 446 kts | 59° |
| 2026-05-07 08:01 | 63.22083 | -87.15863 | 34523 ft | 446 kts | 59° |
| 2026-05-07 08:02 | 63.25200 | -87.03961 | 34539 ft | 446 kts | 60° |
| 2026-05-07 08:02 | 63.28300 | -86.92060 | 34537 ft | 446 kts | 60° |
| 2026-05-07 08:03 | 63.31396 | -86.80111 | 34529 ft | 446 kts | 60° |
| 2026-05-07 08:03 | 63.34491 | -86.68102 | 34537 ft | 447 kts | 60° |
| 2026-05-07 08:04 | 63.37573 | -86.56077 | 34533 ft | 447 kts | 60° |
| 2026-05-07 08:04 | 63.40629 | -86.44090 | 34515 ft | 446 kts | 60° |
| 2026-05-07 08:05 | 63.43681 | -86.32051 | 34523 ft | 445 kts | 60° |
| 2026-05-07 08:05 | 63.46724 | -86.19984 | 34534 ft | 445 kts | 60° |
| 2026-05-07 08:06 | 63.49753 | -86.07906 | 34533 ft | 445 kts | 61° |
| 2026-05-07 08:06 | 63.52776 | -85.95784 | 34521 ft | 446 kts | 61° |
| 2026-05-07 08:07 | 63.55801 | -85.83590 | 34519 ft | 447 kts | 62° |
| 2026-05-07 08:07 | 63.58814 | -85.71375 | 34527 ft | 447 kts | 62° |
| 2026-05-07 08:08 | 63.61797 | -85.59216 | 34520 ft | 447 kts | 62° |
| 2026-05-07 08:08 | 63.64797 | -85.46918 | 34523 ft | 448 kts | 62° |
| 2026-05-07 08:09 | 63.67779 | -85.34624 | 34526 ft | 447 kts | 62° |
| 2026-05-07 08:09 | 63.70750 | -85.22308 | 34533 ft | 446 kts | 63° |
| 2026-05-07 08:10 | 63.73701 | -85.10004 | 34532 ft | 445 kts | 63° |
| 2026-05-07 08:10 | 63.76639 | -84.97686 | 34534 ft | 445 kts | 63° |
| 2026-05-07 08:11 | 63.79562 | -84.85358 | 34540 ft | 444 kts | 63° |
| 2026-05-07 08:11 | 63.82474 | -84.73010 | 34539 ft | 444 kts | 63° |
| 2026-05-07 08:12 | 63.85356 | -84.60717 | 34536 ft | 444 kts | 63° |
| 2026-05-07 08:12 | 63.88246 | -84.48323 | 34544 ft | 445 kts | 63° |
| 2026-05-07 08:13 | 63.91131 | -84.35876 | 34547 ft | 445 kts | 63° |
| 2026-05-07 08:13 | 63.94000 | -84.23427 | 34520 ft | 445 kts | 64° |
| 2026-05-07 08:14 | 63.96858 | -84.10957 | 34534 ft | 443 kts | 64° |
| 2026-05-07 08:14 | 63.99694 | -83.98508 | 34549 ft | 442 kts | 64° |
| 2026-05-07 08:15 | 64.02518 | -83.86042 | 34548 ft | 442 kts | 64° |
| 2026-05-07 08:15 | 64.05327 | -83.73566 | 34549 ft | 442 kts | 64° |
| 2026-05-07 08:16 | 64.08112 | -83.61129 | 34550 ft | 443 kts | 64° |
| 2026-05-07 08:16 | 64.10908 | -83.48565 | 34559 ft | 443 kts | 64° |
| 2026-05-07 08:17 | 64.13245 | -83.38019 | 34515 ft | 443 kts | 64° |